West Annville, Pennsylvania
Current Conditions -  °F | °C
As of 12:58 AM on Thursday 23 Oct 2014 (Local Time) from KMUI Reporting Station
Overcast Overcast  
Wind Chill: 11°   Ceiling: 2300
Heat Index: 11°   Visibility: 10mi
Dew Point:   Wind: 10mph
Humidity: 85%   Direction: 360°N
Pressure: 29.9"   Gusts: NA
Location:  40.3819°N, 76.5718°W
Report Text: KMUI 230458Z AUTO 36009KT 310V060 10SM OVC023 11/09 A2990 RMK AO2 SLP128 T01090085 401290106 $
Loading
Personal Weather Stations






























Interactive Weather Map
Tropical Storm Tracking
New forecast layout! Learn more

10-Day Weather Forecast

Advertisements
Track Severe Weather on mobile